sensor_id;sensor_type;location;lat;lon;timestamp;pressure;altitude;pressure_sealevel;temperature;humidity
41531;BME280;58990;46.284;13.126;2022-11-03T00:01:41;99994.88;;;14.16;100.00
41531;BME280;58990;46.284;13.126;2022-11-03T00:04:10;99995.25;;;14.12;100.00
41531;BME280;58990;46.284;13.126;2022-11-03T00:06:37;99994.78;;;14.24;100.00
41531;BME280;58990;46.284;13.126;2022-11-03T00:09:05;99988.88;;;14.22;100.00
41531;BME280;58990;46.284;13.126;2022-11-03T00:11:32;99994.78;;;14.24;100.00
41531;BME280;58990;46.284;13.126;2022-11-03T00:13:58;99991.75;;;14.27;100.00
41531;BME280;58990;46.284;13.126;2022-11-03T00:16:24;99984.38;;;14.22;100.00
41531;BME280;58990;46.284;13.126;2022-11-03T00:18:50;99986.88;;;14.24;100.00
41531;BME280;58990;46.284;13.126;2022-11-03T00:21:18;99991.50;;;14.22;100.00
41531;BME280;58990;46.284;13.126;2022-11-03T00:23:44;99993.16;;;14.23;100.00
41531;BME280;58990;46.284;13.126;2022-11-03T00:28:55;99983.97;;;14.19;100.00
41531;BME280;58990;46.284;13.126;2022-11-03T00:31:23;99982.31;;;14.18;100.00
41531;BME280;58990;46.284;13.126;2022-11-03T00:33:49;99982.31;;;14.18;100.00
41531;BME280;58990;46.284;13.126;2022-11-03T00:36:17;99978.81;;;14.32;100.00
41531;BME280;58990;46.284;13.126;2022-11-03T00:38:43;99982.00;;;14.27;100.00
41531;BME280;58990;46.284;13.126;2022-11-03T00:41:10;99980.81;;;14.30;100.00
41531;BME280;58990;46.284;13.126;2022-11-03T00:43:36;99980.38;;;14.26;100.00
41531;BME280;58990;46.284;13.126;2022-11-03T00:46:03;99980.75;;;14.23;100.00
41531;BME280;58990;46.284;13.126;2022-11-03T00:48:30;99986.88;;;14.24;100.00
41531;BME280;58990;46.284;13.126;2022-11-03T00:51:05;99983.59;;;14.22;100.00
41531;BME280;58990;46.284;13.126;2022-11-03T00:53:33;99978.31;;;14.22;100.00
41531;BME280;58990;46.284;13.126;2022-11-03T00:56:00;99973.22;;;14.20;100.00
41531;BME280;58990;46.284;13.126;2022-11-03T00:58:26;99974.94;;;14.28;100.00
41531;BME280;58990;46.284;13.126;2022-11-03T01:00:59;99976.31;;;14.24;100.00
41531;BME280;58990;46.284;13.126;2022-11-03T01:03:25;99976.66;;;14.21;100.00
41531;BME280;58990;46.284;13.126;2022-11-03T01:05:51;99966.09;;;14.21;100.00
41531;BME280;58990;46.284;13.126;2022-11-03T01:08:36;99965.75;;;14.24;100.00
41531;BME280;58990;46.284;13.126;2022-11-03T01:11:11;99959.63;;;14.23;100.00
41531;BME280;58990;46.284;13.126;2022-11-03T01:13:57;99963.47;;;14.21;100.00
41531;BME280;58990;46.284;13.126;2022-11-03T01:16:23;99955.91;;;14.18;100.00
41531;BME280;58990;46.284;13.126;2022-11-03T01:18:48;99949.84;;;14.17;100.00
41531;BME280;58990;46.284;13.126;2022-11-03T01:21:14;99957.31;;;14.13;100.00
41531;BME280;58990;46.284;13.126;2022-11-03T01:23:40;99951.38;;;14.11;100.00
41531;BME280;58990;46.284;13.126;2022-11-03T01:26:06;99945.69;;;14.08;100.00
41531;BME280;58990;46.284;13.126;2022-11-03T01:28:33;99950.13;;;14.07;100.00
41531;BME280;58990;46.284;13.126;2022-11-03T01:31:04;99952.13;;;14.05;100.00
41531;BME280;58990;46.284;13.126;2022-11-03T01:33:29;99944.56;;;14.02;100.00
41531;BME280;58990;46.284;13.126;2022-11-03T01:35:55;99944.97;;;13.99;100.00
41531;BME280;58990;46.284;13.126;2022-11-03T01:38:20;99935.59;;;13.96;100.00
41531;BME280;58990;46.284;13.126;2022-11-03T01:40:46;99929.69;;;13.94;100.00
41531;BME280;58990;46.284;13.126;2022-11-03T01:43:17;99937.41;;;13.96;100.00
41531;BME280;58990;46.284;13.126;2022-11-03T01:45:43;99933.53;;;13.92;100.00
41531;BME280;58990;46.284;13.126;2022-11-03T01:48:10;99924.34;;;13.88;100.00
41531;BME280;58990;46.284;13.126;2022-11-03T01:50:37;99927.59;;;13.90;100.00
41531;BME280;58990;46.284;13.126;2022-11-03T01:53:04;99924.59;;;13.93;100.00
41531;BME280;58990;46.284;13.126;2022-11-03T01:55:33;99932.75;;;13.98;100.00
41531;BME280;58990;46.284;13.126;2022-11-03T01:58:07;99933.78;;;13.97;100.00
41531;BME280;58990;46.284;13.126;2022-11-03T02:00:34;99924.41;;;13.94;100.00
41531;BME280;58990;46.284;13.126;2022-11-03T02:03:00;99925.22;;;13.95;100.00
41531;BME280;58990;46.284;13.126;2022-11-03T02:05:27;99919.31;;;13.93;100.00
41531;BME280;58990;46.284;13.126;2022-11-03T02:08:00;99919.94;;;13.95;100.00
41531;BME280;58990;46.284;13.126;2022-11-03T02:10:29;99921.97;;;13.93;100.00
41531;BME280;58990;46.284;13.126;2022-11-03T02:12:55;99920.78;;;13.95;100.00
41531;BME280;58990;46.284;13.126;2022-11-03T02:15:22;99918.56;;;13.99;100.00
41531;BME280;58990;46.284;13.126;2022-11-03T02:17:49;99912.28;;;14.00;100.00
41531;BME280;58990;46.284;13.126;2022-11-03T02:20:21;99917.84;;;14.05;100.00
41531;BME280;58990;46.284;13.126;2022-11-03T02:25:47;99905.97;;;14.16;100.00
41531;BME280;58990;46.284;13.126;2022-11-03T02:28:18;99903.25;;;14.09;100.00
41531;BME280;58990;46.284;13.126;2022-11-03T02:31:03;99904.25;;;14.08;100.00
41531;BME280;58990;46.284;13.126;2022-11-03T02:39:07;99901.50;;;14.17;100.00
41531;BME280;58990;46.284;13.126;2022-11-03T02:41:36;99897.47;;;14.21;100.00
41531;BME280;58990;46.284;13.126;2022-11-03T02:44:04;99897.47;;;14.21;100.00
41531;BME280;58990;46.284;13.126;2022-11-03T02:46:33;99902.47;;;14.16;100.00
41531;BME280;58990;46.284;13.126;2022-11-03T02:49:00;99900.69;;;14.16;100.00
41531;BME280;58990;46.284;13.126;2022-11-03T02:51:25;99891.75;;;14.17;100.00
41531;BME280;58990;46.284;13.126;2022-11-03T02:56:51;99896.59;;;14.13;100.00
41531;BME280;58990;46.284;13.126;2022-11-03T02:59:23;99882.41;;;14.15;100.00
41531;BME280;58990;46.284;13.126;2022-11-03T03:02:02;99887.69;;;14.15;100.00
41531;BME280;58990;46.284;13.126;2022-11-03T03:04:38;99883.41;;;14.13;100.00
41531;BME280;58990;46.284;13.126;2022-11-03T03:07:07;99879.13;;;14.12;100.00
41531;BME280;58990;46.284;13.126;2022-11-03T03:09:40;99882.13;;;14.09;100.00
41531;BME280;58990;46.284;13.126;2022-11-03T03:12:09;99874.22;;;14.09;100.00
41531;BME280;58990;46.284;13.126;2022-11-03T03:14:37;99873.56;;;14.07;100.00
41531;BME280;58990;46.284;13.126;2022-11-03T03:19:52;99871.38;;;14.11;100.00
41531;BME280;58990;46.284;13.126;2022-11-03T03:22:38;99858.94;;;14.05;100.00
41531;BME280;58990;46.284;13.126;2022-11-03T03:25:27;99858.13;;;14.04;100.00
41531;BME280;58990;46.284;13.126;2022-11-03T03:28:00;99853.66;;;14.05;100.00
41531;BME280;58990;46.284;13.126;2022-11-03T03:30:28;99856.50;;;14.03;100.00
41531;BME280;58990;46.284;13.126;2022-11-03T03:32:55;99862.41;;;14.05;100.00
41531;BME280;58990;46.284;13.126;2022-11-03T03:35:25;99859.91;;;14.19;100.00
41531;BME280;58990;46.284;13.126;2022-11-03T03:37:57;99860.56;;;14.27;100.00
41531;BME280;58990;46.284;13.126;2022-11-03T03:40:30;99858.13;;;14.26;100.00
41531;BME280;58990;46.284;13.126;2022-11-03T03:42:59;99870.94;;;14.29;100.00
41531;BME280;58990;46.284;13.126;2022-11-03T03:45:25;99862.47;;;14.34;100.00
41531;BME280;58990;46.284;13.126;2022-11-03T03:47:51;99862.00;;;14.30;100.00
41531;BME280;58990;46.284;13.126;2022-11-03T03:50:16;99856.47;;;14.25;100.00
41531;BME280;58990;46.284;13.126;2022-11-03T03:52:42;99855.28;;;14.27;100.00
41531;BME280;58990;46.284;13.126;2022-11-03T03:55:15;99863.78;;;14.23;100.00
41531;BME280;58990;46.284;13.126;2022-11-03T03:57:41;99853.59;;;14.20;100.00
41531;BME280;58990;46.284;13.126;2022-11-03T04:00:09;99856.06;;;14.21;100.00
41531;BME280;58990;46.284;13.126;2022-11-03T04:02:37;99852.38;;;14.22;100.00
41531;BME280;58990;46.284;13.126;2022-11-03T04:05:02;99861.41;;;14.28;100.00
41531;BME280;58990;46.284;13.126;2022-11-03T04:07:28;99858.97;;;14.33;100.00
41531;BME280;58990;46.284;13.126;2022-11-03T04:10:19;99856.13;;;14.28;100.00
41531;BME280;58990;46.284;13.126;2022-11-03T04:12:45;99855.47;;;14.26;100.00
41531;BME280;58990;46.284;13.126;2022-11-03T04:15:31;99858.69;;;14.21;100.00
41531;BME280;58990;46.284;13.126;2022-11-03T04:18:20;99855.81;;;14.16;100.00
41531;BME280;58990;46.284;13.126;2022-11-03T04:21:09;99854.34;;;14.13;100.00
41531;BME280;58990;46.284;13.126;2022-11-03T04:23:56;99864.53;;;14.17;100.00
41531;BME280;58990;46.284;13.126;2022-11-03T04:26:21;99857.13;;;14.05;100.00
41531;BME280;58990;46.284;13.126;2022-11-03T04:28:48;99852.97;;;13.96;100.00
41531;BME280;58990;46.284;13.126;2022-11-03T04:31:16;99857.47;;;14.02;100.00
41531;BME280;58990;46.284;13.126;2022-11-03T04:33:42;99857.59;;;13.94;100.00
41531;BME280;58990;46.284;13.126;2022-11-03T04:36:23;99850.72;;;13.93;100.00
41531;BME280;58990;46.284;13.126;2022-11-03T04:38:50;99856.75;;;13.87;100.00
41531;BME280;58990;46.284;13.126;2022-11-03T04:41:24;99857.53;;;13.87;100.00
41531;BME280;58990;46.284;13.126;2022-11-03T04:43:53;99853.97;;;13.95;100.00
41531;BME280;58990;46.284;13.126;2022-11-03T04:46:24;99859.50;;;14.00;100.00
41531;BME280;58990;46.284;13.126;2022-11-03T04:48:52;99858.72;;;14.00;100.00
41531;BME280;58990;46.284;13.126;2022-11-03T04:51:22;99856.63;;;13.95;100.00
41531;BME280;58990;46.284;13.126;2022-11-03T04:53:58;99854.56;;;13.90;100.00
41531;BME280;58990;46.284;13.126;2022-11-03T04:56:25;99861.38;;;13.85;100.00
41531;BME280;58990;46.284;13.126;2022-11-03T04:58:52;99854.03;;;13.80;100.00
41531;BME280;58990;46.284;13.126;2022-11-03T05:01:19;99852.78;;;13.76;100.00
41531;BME280;58990;46.284;13.126;2022-11-03T05:03:48;99846.69;;;13.75;100.00
41531;BME280;58990;46.284;13.126;2022-11-03T05:08:57;99845.91;;;13.82;100.00
41531;BME280;58990;46.284;13.126;2022-11-03T05:11:34;99842.47;;;13.81;100.00
41531;BME280;58990;46.284;13.126;2022-11-03T05:14:16;99838.28;;;13.87;100.00
41531;BME280;58990;46.284;13.126;2022-11-03T05:16:42;99830.34;;;13.87;100.00
41531;BME280;58990;46.284;13.126;2022-11-03T05:19:14;99834.38;;;13.83;100.00
41531;BME280;58990;46.284;13.126;2022-11-03T05:21:43;99834.13;;;13.77;100.00
41531;BME280;58990;46.284;13.126;2022-11-03T05:24:12;99837.75;;;13.76;100.00
41531;BME280;58990;46.284;13.126;2022-11-03T05:26:38;99839.78;;;13.74;100.00
41531;BME280;58990;46.284;13.126;2022-11-03T05:29:18;99834.50;;;13.74;100.00
41531;BME280;58990;46.284;13.126;2022-11-03T05:31:50;99842.88;;;13.78;100.00
41531;BME280;58990;46.284;13.126;2022-11-03T05:34:36;99846.56;;;13.84;100.00
41531;BME280;58990;46.284;13.126;2022-11-03T05:39:47;99845.53;;;13.85;100.00
41531;BME280;58990;46.284;13.126;2022-11-03T05:45:14;99849.56;;;13.80;100.00
41531;BME280;58990;46.284;13.126;2022-11-03T05:47:42;99847.03;;;13.72;100.00
41531;BME280;58990;46.284;13.126;2022-11-03T05:52:59;99851.31;;;13.73;100.00
41531;BME280;58990;46.284;13.126;2022-11-03T06:04:13;99852.69;;;13.69;100.00
41531;BME280;58990;46.284;13.126;2022-11-03T06:06:40;99842.16;;;13.69;100.00
41531;BME280;58990;46.284;13.126;2022-11-03T06:09:12;99844.16;;;13.67;100.00
41531;BME280;58990;46.284;13.126;2022-11-03T06:11:40;99846.16;;;13.65;100.00
41531;BME280;58990;46.284;13.126;2022-11-03T06:14:22;99844.16;;;13.67;100.00
41531;BME280;58990;46.284;13.126;2022-11-03T06:22:27;99841.41;;;13.75;100.00
41531;BME280;58990;46.284;13.126;2022-11-03T06:24:56;99835.75;;;13.78;100.00
41531;BME280;58990;46.284;13.126;2022-11-03T06:27:25;99837.00;;;13.83;100.00
41531;BME280;58990;46.284;13.126;2022-11-03T06:30:00;99832.25;;;13.93;100.00
41531;BME280;58990;46.284;13.126;2022-11-03T06:32:25;99838.41;;;14.00;100.00
41531;BME280;58990;46.284;13.126;2022-11-03T06:34:55;99836.75;;;13.99;100.00
41531;BME280;58990;46.284;13.126;2022-11-03T06:37:23;99837.00;;;14.04;100.00
41531;BME280;58990;46.284;13.126;2022-11-03T06:39:50;99839.72;;;14.11;100.00
41531;BME280;58990;46.284;13.126;2022-11-03T06:42:20;99846.00;;;14.10;100.00
41531;BME280;58990;46.284;13.126;2022-11-03T06:44:48;99842.16;;;14.12;100.00
41531;BME280;58990;46.284;13.126;2022-11-03T06:49:57;99854.50;;;14.05;100.00
41531;BME280;58990;46.284;13.126;2022-11-03T06:57:45;99869.63;;;14.18;100.00
41531;BME280;58990;46.284;13.126;2022-11-03T07:02:56;99855.47;;;14.26;100.00
41531;BME280;58990;46.284;13.126;2022-11-03T07:05:30;99851.19;;;14.25;100.00
41531;BME280;58990;46.284;13.126;2022-11-03T07:07:59;99852.09;;;14.32;100.00
41531;BME280;58990;46.284;13.126;2022-11-03T07:10:32;99840.75;;;14.38;100.00
41531;BME280;58990;46.284;13.126;2022-11-03T07:13:11;99839.00;;;14.45;100.00
41531;BME280;58990;46.284;13.126;2022-11-03T07:15:37;99848.53;;;14.46;100.00
41531;BME280;58990;46.284;13.126;2022-11-03T07:18:10;99848.38;;;14.55;100.00
41531;BME280;58990;46.284;13.126;2022-11-03T07:20:46;99845.97;;;14.60;100.00
41531;BME280;58990;46.284;13.126;2022-11-03T07:23:18;99835.81;;;14.57;100.00
41531;BME280;58990;46.284;13.126;2022-11-03T07:25:51;99835.22;;;14.61;100.00
41531;BME280;58990;46.284;13.126;2022-11-03T07:28:20;99832.28;;;14.71;100.00
41531;BME280;58990;46.284;13.126;2022-11-03T07:30:45;99834.34;;;14.76;100.00
41531;BME280;58990;46.284;13.126;2022-11-03T07:33:20;99836.59;;;14.79;100.00
41531;BME280;58990;46.284;13.126;2022-11-03T07:35:46;99840.09;;;14.86;100.00
41531;BME280;58990;46.284;13.126;2022-11-03T07:38:14;99844.34;;;14.87;100.00
41531;BME280;58990;46.284;13.126;2022-11-03T07:40:42;99839.28;;;14.86;100.00
41531;BME280;58990;46.284;13.126;2022-11-03T07:43:15;99839.50;;;14.91;100.00
41531;BME280;58990;46.284;13.126;2022-11-03T07:45:47;99847.28;;;14.99;100.00
41531;BME280;58990;46.284;13.126;2022-11-03T07:48:13;99838.34;;;15.00;100.00
41531;BME280;58990;46.284;13.126;2022-11-03T07:50:43;99835.94;;;15.05;100.00
41531;BME280;58990;46.284;13.126;2022-11-03T07:53:13;99841.47;;;15.10;100.00
41531;BME280;58990;46.284;13.126;2022-11-03T07:55:43;99836.41;;;15.22;100.00
41531;BME280;58990;46.284;13.126;2022-11-03T07:58:19;99831.97;;;15.29;100.00
41531;BME280;58990;46.284;13.126;2022-11-03T08:00:45;99829.16;;;15.38;100.00
41531;BME280;58990;46.284;13.126;2022-11-03T08:03:24;99832.44;;;15.46;100.00
41531;BME280;58990;46.284;13.126;2022-11-03T08:05:51;99831.00;;;15.51;100.00
41531;BME280;58990;46.284;13.126;2022-11-03T08:08:16;99834.50;;;15.58;100.00
41531;BME280;58990;46.284;13.126;2022-11-03T08:10:42;99824.16;;;15.63;100.00
41531;BME280;58990;46.284;13.126;2022-11-03T08:13:07;99828.03;;;15.67;100.00
41531;BME280;58990;46.284;13.126;2022-11-03T08:15:33;99821.53;;;15.70;100.00
41531;BME280;58990;46.284;13.126;2022-11-03T08:17:58;99819.06;;;15.68;100.00
41531;BME280;58990;46.284;13.126;2022-11-03T08:20:23;99826.81;;;15.70;100.00
41531;BME280;58990;46.284;13.126;2022-11-03T08:22:49;99834.94;;;15.68;100.00
41531;BME280;58990;46.284;13.126;2022-11-03T08:25:14;99826.81;;;15.70;100.00
41531;BME280;58990;46.284;13.126;2022-11-03T08:27:40;99825.78;;;15.71;99.15
41531;BME280;58990;46.284;13.126;2022-11-03T08:30:06;99829.03;;;15.66;99.13
41531;BME280;58990;46.284;13.126;2022-11-03T08:32:31;99819.88;;;15.62;99.28
41531;BME280;58990;46.284;13.126;2022-11-03T08:34:57;99814.59;;;15.62;100.00
41531;BME280;58990;46.284;13.126;2022-11-03T08:37:22;99818.03;;;15.69;98.97
41531;BME280;58990;46.284;13.126;2022-11-03T08:39:47;99806.50;;;15.84;98.94
41531;BME280;58990;46.284;13.126;2022-11-03T08:42:13;99806.13;;;16.00;98.23
41531;BME280;58990;46.284;13.126;2022-11-03T08:44:38;99803.69;;;16.05;97.28
41531;BME280;58990;46.284;13.126;2022-11-03T08:47:03;99800.81;;;16.13;96.73
41531;BME280;58990;46.284;13.126;2022-11-03T08:49:29;99803.25;;;16.15;95.79
41531;BME280;58990;46.284;13.126;2022-11-03T08:51:54;99792.06;;;16.13;95.88
41531;BME280;58990;46.284;13.126;2022-11-03T08:54:20;99791.88;;;16.14;96.13
41531;BME280;58990;46.284;13.126;2022-11-03T08:56:45;99788.81;;;16.04;94.90
41531;BME280;58990;46.284;13.126;2022-11-03T08:59:12;99785.34;;;16.10;94.38
41531;BME280;58990;46.284;13.126;2022-11-03T09:01:38;99790.22;;;16.13;92.53
41531;BME280;58990;46.284;13.126;2022-11-03T09:04:06;99780.06;;;16.24;95.38
41531;BME280;58990;46.284;13.126;2022-11-03T09:06:32;99778.00;;;16.26;93.73
41531;BME280;58990;46.284;13.126;2022-11-03T09:08:58;99773.31;;;16.28;93.69
41531;BME280;58990;46.284;13.126;2022-11-03T09:11:26;99768.25;;;16.33;93.30
41531;BME280;58990;46.284;13.126;2022-11-03T09:13:51;99763.72;;;16.54;91.53
41531;BME280;58990;46.284;13.126;2022-11-03T09:16:17;99757.72;;;16.78;91.16
41531;BME280;58990;46.284;13.126;2022-11-03T09:18:42;99762.19;;;17.37;86.00
41531;BME280;58990;46.284;13.126;2022-11-03T09:21:08;99753.41;;;18.00;83.22
41531;BME280;58990;46.284;13.126;2022-11-03T09:23:33;99759.75;;;18.43;78.25
41531;BME280;58990;46.284;13.126;2022-11-03T09:25:58;99755.41;;;18.67;76.55
41531;BME280;58990;46.284;13.126;2022-11-03T09:28:24;99755.47;;;18.42;76.02
41531;BME280;58990;46.284;13.126;2022-11-03T09:30:49;99761.59;;;18.24;78.52
41531;BME280;58990;46.284;13.126;2022-11-03T09:33:15;99757.63;;;18.08;79.31
41531;BME280;58990;46.284;13.126;2022-11-03T09:35:40;99753.97;;;18.27;79.72
41531;BME280;58990;46.284;13.126;2022-11-03T09:38:06;99763.13;;;18.13;81.45
41531;BME280;58990;46.284;13.126;2022-11-03T09:40:31;99759.31;;;18.02;81.00
41531;BME280;58990;46.284;13.126;2022-11-03T09:42:59;99755.44;;;17.73;82.25
41531;BME280;58990;46.284;13.126;2022-11-03T09:45:33;99762.03;;;17.63;82.11
41531;BME280;58990;46.284;13.126;2022-11-03T09:47:59;99764.13;;;17.55;81.59
41531;BME280;58990;46.284;13.126;2022-11-03T09:50:25;99760.56;;;17.36;83.35
41531;BME280;58990;46.284;13.126;2022-11-03T09:52:50;99747.91;;;17.38;82.22
41531;BME280;58990;46.284;13.126;2022-11-03T09:55:22;99749.53;;;17.39;82.82
41531;BME280;58990;46.284;13.126;2022-11-03T09:57:48;99738.34;;;17.30;83.13
41531;BME280;58990;46.284;13.126;2022-11-03T10:00:19;99738.41;;;17.17;85.05
41531;BME280;58990;46.284;13.126;2022-11-03T10:02:46;99736.56;;;17.24;84.21
41531;BME280;58990;46.284;13.126;2022-11-03T10:05:13;99735.34;;;17.20;81.86
41531;BME280;58990;46.284;13.126;2022-11-03T10:07:44;99725.28;;;17.28;83.34
41531;BME280;58990;46.284;13.126;2022-11-03T10:10:18;99722.34;;;17.11;80.52
41531;BME280;58990;46.284;13.126;2022-11-03T10:12:45;99715.31;;;17.30;80.20
41531;BME280;58990;46.284;13.126;2022-11-03T10:15:16;99702.63;;;17.90;78.92
41531;BME280;58990;46.284;13.126;2022-11-03T10:17:43;99697.66;;;18.56;75.04
41531;BME280;58990;46.284;13.126;2022-11-03T10:20:11;99699.38;;;19.60;64.75
41531;BME280;58990;46.284;13.126;2022-11-03T10:22:38;99697.44;;;19.25;64.34
41531;BME280;58990;46.284;13.126;2022-11-03T10:25:37;99696.84;;;19.23;70.21
41531;BME280;58990;46.284;13.126;2022-11-03T10:33:40;99676.31;;;19.54;69.32
41531;BME280;58990;46.284;13.126;2022-11-03T10:38:52;99677.66;;;19.21;69.57
41531;BME280;58990;46.284;13.126;2022-11-03T10:47:02;99670.06;;;18.57;70.60
41531;BME280;58990;46.284;13.126;2022-11-03T10:49:29;99664.19;;;18.36;73.91
41531;BME280;58990;46.284;13.126;2022-11-03T10:52:06;99660.78;;;18.29;75.52
41531;BME280;58990;46.284;13.126;2022-11-03T10:54:37;99652.38;;;18.32;73.89
41531;BME280;58990;46.284;13.126;2022-11-03T10:57:02;99649.25;;;18.35;74.15
41531;BME280;58990;46.284;13.126;2022-11-03T10:59:31;99651.50;;;18.38;73.81
41531;BME280;58990;46.284;13.126;2022-11-03T11:01:59;99645.34;;;18.56;71.85
41531;BME280;58990;46.284;13.126;2022-11-03T11:04:24;99639.06;;;18.51;71.90
41531;BME280;58990;46.284;13.126;2022-11-03T11:06:50;99636.66;;;18.12;68.67
41531;BME280;58990;46.284;13.126;2022-11-03T11:09:21;99633.69;;;18.20;71.61
41531;BME280;58990;46.284;13.126;2022-11-03T11:17:46;99620.63;;;18.00;71.65
41531;BME280;58990;46.284;13.126;2022-11-03T11:22:54;99613.19;;;18.09;72.12
41531;BME280;58990;46.284;13.126;2022-11-03T11:25:20;99610.75;;;18.07;71.32
41531;BME280;58990;46.284;13.126;2022-11-03T11:33:22;99597.22;;;18.27;70.97
41531;BME280;58990;46.284;13.126;2022-11-03T11:51:50;99571.56;;;18.21;69.75
41531;BME280;58990;46.284;13.126;2022-11-03T11:54:18;99560.72;;;18.04;70.86
41531;BME280;58990;46.284;13.126;2022-11-03T11:56:46;99560.88;;;18.28;71.33
41531;BME280;58990;46.284;13.126;2022-11-03T11:59:22;99554.47;;;18.47;69.93
41531;BME280;58990;46.284;13.126;2022-11-03T12:01:50;99546.72;;;18.46;69.57
41531;BME280;58990;46.284;13.126;2022-11-03T12:06:56;99544.56;;;18.24;69.20
41531;BME280;58990;46.284;13.126;2022-11-03T12:09:24;99547.72;;;18.33;69.24
41531;BME280;58990;46.284;13.126;2022-11-03T12:11:59;99548.03;;;18.25;70.39
41531;BME280;58990;46.284;13.126;2022-11-03T12:30:21;99538.88;;;17.83;70.20
41531;BME280;58990;46.284;13.126;2022-11-03T12:32:47;99536.97;;;17.72;69.65
41531;BME280;58990;46.284;13.126;2022-11-03T12:35:13;99521.03;;;17.72;70.95
41531;BME280;58990;46.284;13.126;2022-11-03T12:37:38;99523.53;;;17.67;70.63
41531;BME280;58990;46.284;13.126;2022-11-03T12:40:05;99524.41;;;17.61;71.22
41531;BME280;58990;46.284;13.126;2022-11-03T12:42:31;99516.59;;;17.47;72.71
41531;BME280;58990;46.284;13.126;2022-11-03T12:44:56;99513.13;;;17.47;72.26
41531;BME280;58990;46.284;13.126;2022-11-03T12:47:22;99512.53;;;17.45;74.91
41531;BME280;58990;46.284;13.126;2022-11-03T12:49:47;99508.34;;;17.37;74.21
41531;BME280;58990;46.284;13.126;2022-11-03T12:52:13;99508.16;;;17.32;74.97
41531;BME280;58990;46.284;13.126;2022-11-03T12:54:39;99506.94;;;17.09;75.76
41531;BME280;58990;46.284;13.126;2022-11-03T12:57:04;99498.25;;;17.21;77.10
41531;BME280;58990;46.284;13.126;2022-11-03T12:59:29;99501.41;;;17.11;77.40
41531;BME280;58990;46.284;13.126;2022-11-03T13:01:55;99495.16;;;17.05;77.77
41531;BME280;58990;46.284;13.126;2022-11-03T13:04:20;99488.50;;;16.96;78.61
41531;BME280;58990;46.284;13.126;2022-11-03T13:06:46;99491.38;;;16.88;78.95
41531;BME280;58990;46.284;13.126;2022-11-03T13:09:11;99475.94;;;16.85;78.61
41531;BME280;58990;46.284;13.126;2022-11-03T13:11:36;99481.41;;;16.90;78.14
41531;BME280;58990;46.284;13.126;2022-11-03T13:14:22;99481.19;;;16.91;78.90
41531;BME280;58990;46.284;13.126;2022-11-03T13:16:47;99480.19;;;16.86;79.55
41531;BME280;58990;46.284;13.126;2022-11-03T13:19:12;99476.34;;;16.81;79.32
41531;BME280;58990;46.284;13.126;2022-11-03T13:21:38;99477.78;;;16.77;80.65
41531;BME280;58990;46.284;13.126;2022-11-03T13:24:06;99480.66;;;16.76;79.88
41531;BME280;58990;46.284;13.126;2022-11-03T13:26:32;99470.06;;;16.76;80.40
41531;BME280;58990;46.284;13.126;2022-11-03T13:28:57;99474.50;;;16.82;79.85
41531;BME280;58990;46.284;13.126;2022-11-03T13:31:23;99476.28;;;16.88;79.52
41531;BME280;58990;46.284;13.126;2022-11-03T13:33:48;99479.44;;;16.78;79.85
41531;BME280;58990;46.284;13.126;2022-11-03T13:36:15;99477.78;;;16.77;79.33
41531;BME280;58990;46.284;13.126;2022-11-03T13:38:40;99473.69;;;16.81;80.52
41531;BME280;58990;46.284;13.126;2022-11-03T13:41:05;99474.72;;;16.80;79.47
41531;BME280;58990;46.284;13.126;2022-11-03T13:43:31;99473.53;;;16.76;80.17
41531;BME280;58990;46.284;13.126;2022-11-03T13:45:56;99466.63;;;16.75;80.29
41531;BME280;58990;46.284;13.126;2022-11-03T13:48:26;99457.78;;;16.81;79.80
41531;BME280;58990;46.284;13.126;2022-11-03T13:50:52;99464.28;;;16.86;81.08
41531;BME280;58990;46.284;13.126;2022-11-03T13:53:17;99451.38;;;16.96;81.22
41531;BME280;58990;46.284;13.126;2022-11-03T13:55:43;99450.75;;;17.01;80.47
41531;BME280;58990;46.284;13.126;2022-11-03T13:58:09;99442.56;;;17.02;78.57
41531;BME280;58990;46.284;13.126;2022-11-03T14:00:34;99447.81;;;17.09;77.96
41531;BME280;58990;46.284;13.126;2022-11-03T14:03:00;99437.84;;;17.04;78.18
41531;BME280;58990;46.284;13.126;2022-11-03T14:05:25;99438.72;;;16.98;77.48
41531;BME280;58990;46.284;13.126;2022-11-03T14:07:51;99435.09;;;16.92;77.95
41531;BME280;58990;46.284;13.126;2022-11-03T14:10:16;99432.88;;;16.89;78.31
41531;BME280;58990;46.284;13.126;2022-11-03T14:12:42;99434.97;;;16.80;78.55
41531;BME280;58990;46.284;13.126;2022-11-03T14:15:09;99427.66;;;16.76;79.48
41531;BME280;58990;46.284;13.126;2022-11-03T14:17:36;99417.13;;;16.69;80.51
41531;BME280;58990;46.284;13.126;2022-11-03T14:20:03;99418.34;;;16.67;81.05
41531;BME280;58990;46.284;13.126;2022-11-03T14:22:29;99428.03;;;16.54;81.52
41531;BME280;58990;46.284;13.126;2022-11-03T14:24:57;99424.16;;;16.57;82.36
41531;BME280;58990;46.284;13.126;2022-11-03T14:27:23;99422.56;;;16.49;82.02
41531;BME280;58990;46.284;13.126;2022-11-03T14:29:49;99421.88;;;16.35;83.10
41531;BME280;58990;46.284;13.126;2022-11-03T14:32:15;99422.22;;;16.45;83.53
41531;BME280;58990;46.284;13.126;2022-11-03T14:34:41;99411.97;;;16.49;83.42
41531;BME280;58990;46.284;13.126;2022-11-03T14:37:08;99414.63;;;16.49;83.67
41531;BME280;58990;46.284;13.126;2022-11-03T14:39:34;99407.50;;;16.50;82.33
41531;BME280;58990;46.284;13.126;2022-11-03T14:42:01;99406.31;;;16.45;83.91
41531;BME280;58990;46.284;13.126;2022-11-03T14:44:34;99405.88;;;16.48;83.89
41531;BME280;58990;46.284;13.126;2022-11-03T14:47:01;99401.44;;;16.42;82.68
41531;BME280;58990;46.284;13.126;2022-11-03T14:49:28;99396.97;;;16.43;82.54